createdAt,value
2017-12-29T00:00:35.018Z,1.30
2017-12-29T00:03:03.835Z,1.30
2017-12-29T00:05:32.382Z,1.30
2017-12-29T00:07:59.970Z,1.30
2017-12-29T00:10:27.585Z,1.40
2017-12-29T00:12:55.163Z,1.40
2017-12-29T00:15:22.828Z,1.40
2017-12-29T00:17:51.246Z,1.40
2017-12-29T00:20:19.003Z,1.40
2017-12-29T00:22:46.613Z,1.50
2017-12-29T00:25:14.195Z,1.50
2017-12-29T00:27:41.798Z,1.50
2017-12-29T00:30:09.402Z,1.50
2017-12-29T00:32:37.153Z,1.50
2017-12-29T00:35:05.858Z,1.50
2017-12-29T00:37:33.963Z,1.40
2017-12-29T00:40:01.776Z,1.40
2017-12-29T00:42:29.351Z,1.40
2017-12-29T00:44:56.950Z,1.50
2017-12-29T00:47:24.533Z,1.50
2017-12-29T00:49:52.142Z,1.50
2017-12-29T00:52:19.720Z,1.40
2017-12-29T00:54:47.362Z,1.40
2017-12-29T00:57:15.713Z,1.30
2017-12-29T00:59:44.393Z,1.30
2017-12-29T01:02:11.999Z,1.30
2017-12-29T01:04:39.593Z,1.30
2017-12-29T01:07:07.486Z,1.40
2017-12-29T01:09:35.066Z,1.30
2017-12-29T01:12:04.221Z,1.40
2017-12-29T01:14:31.836Z,1.40
2017-12-29T01:17:00.354Z,1.40
2017-12-29T01:19:27.954Z,1.40
2017-12-29T01:21:55.542Z,1.40
2017-12-29T01:24:23.242Z,1.40
2017-12-29T01:26:51.025Z,1.40
2017-12-29T01:29:18.606Z,1.40
2017-12-29T01:31:46.250Z,1.50
2017-12-29T01:34:13.835Z,1.40
2017-12-29T01:36:41.457Z,1.40
2017-12-29T01:39:09.807Z,1.30
2017-12-29T01:41:38.010Z,1.30
2017-12-29T01:44:05.580Z,1.20
2017-12-29T01:46:34.154Z,1.30
2017-12-29T01:49:02.521Z,1.20
2017-12-29T01:51:30.272Z,1.20
2017-12-29T01:53:57.886Z,1.20
2017-12-29T01:56:25.462Z,1.10
2017-12-29T01:58:53.065Z,1.20
2017-12-29T02:01:20.641Z,1.10
2017-12-29T02:03:48.227Z,1.00
2017-12-29T02:06:15.852Z,1.10
2017-12-29T02:08:43.429Z,1.10
2017-12-29T02:11:11.081Z,1.10
2017-12-29T02:13:38.659Z,1.00
2017-12-29T02:16:06.287Z,1.10
2017-12-29T02:18:34.873Z,1.00
2017-12-29T02:21:04.482Z,1.00
2017-12-29T02:23:32.088Z,1.00
2017-12-29T02:25:59.853Z,1.00
2017-12-29T02:28:28.220Z,1.00
2017-12-29T02:30:56.877Z,1.00
2017-12-29T02:33:24.463Z,1.00
2017-12-29T02:35:52.101Z,1.00
2017-12-29T02:38:19.668Z,1.00
2017-12-29T02:40:47.304Z,0.90
2017-12-29T02:43:15.642Z,0.90
2017-12-29T02:45:43.311Z,0.90
2017-12-29T02:48:10.883Z,0.90
2017-12-29T02:50:39.264Z,1.10
2017-12-29T02:53:06.869Z,1.10
2017-12-29T02:55:35.399Z,1.20
2017-12-29T02:58:03.004Z,1.20
2017-12-29T03:00:30.616Z,1.20
2017-12-29T03:02:58.995Z,1.10
2017-12-29T03:05:26.769Z,1.10
2017-12-29T03:07:54.345Z,1.00
2017-12-29T03:10:22.018Z,0.90
2017-12-29T03:12:51.177Z,0.80
2017-12-29T03:15:18.774Z,0.80
2017-12-29T03:17:46.353Z,0.80
2017-12-29T03:20:14.006Z,0.80
2017-12-29T03:22:42.350Z,0.70
2017-12-29T03:25:10.121Z,0.70
2017-12-29T03:27:37.726Z,0.70
2017-12-29T03:30:05.327Z,0.70
2017-12-29T03:32:32.968Z,0.70
2017-12-29T03:35:00.556Z,0.70
2017-12-29T03:37:28.169Z,0.70
2017-12-29T03:39:55.774Z,0.70
2017-12-29T03:42:23.376Z,0.70
2017-12-29T03:44:51.010Z,0.70
2017-12-29T03:47:18.584Z,0.70
2017-12-29T03:49:47.232Z,0.70
2017-12-29T03:52:14.801Z,0.70
2017-12-29T03:54:42.402Z,0.70
2017-12-29T03:57:09.977Z,0.70
2017-12-29T03:59:37.571Z,0.80
2017-12-29T04:02:05.262Z,0.80
2017-12-29T04:04:33.516Z,0.80
2017-12-29T04:07:01.892Z,0.80
2017-12-29T04:09:30.549Z,0.80
2017-12-29T04:11:58.166Z,0.80
2017-12-29T04:14:25.736Z,0.90
2017-12-29T04:16:53.318Z,0.90
2017-12-29T04:19:20.922Z,1.00
2017-12-29T04:21:48.492Z,1.00
2017-12-29T04:24:16.100Z,1.00
2017-12-29T04:26:43.679Z,1.10
2017-12-29T04:29:11.469Z,1.20
2017-12-29T04:31:39.059Z,1.20
2017-12-29T04:34:07.542Z,1.20
2017-12-29T04:36:35.151Z,1.20
2017-12-29T04:39:03.454Z,1.30
2017-12-29T04:41:31.062Z,1.30
2017-12-29T04:43:59.454Z,1.40
2017-12-29T04:46:27.060Z,1.40
2017-12-29T04:48:55.608Z,1.40
2017-12-29T04:51:23.174Z,1.40
2017-12-29T04:53:51.702Z,1.50
2017-12-29T04:56:19.317Z,1.40
2017-12-29T04:58:47.030Z,1.40
2017-12-29T05:01:14.602Z,1.50
2017-12-29T05:03:42.214Z,1.50
2017-12-29T05:06:09.810Z,1.50
2017-12-29T05:08:37.410Z,1.50
2017-12-29T05:11:06.291Z,1.50
2017-12-29T05:13:34.783Z,1.50
2017-12-29T05:16:02.394Z,1.50
2017-12-29T05:18:29.991Z,1.50
2017-12-29T05:20:57.570Z,1.50
2017-12-29T05:23:25.250Z,1.50
2017-12-29T05:25:52.826Z,1.60
2017-12-29T05:28:20.470Z,1.50
2017-12-29T05:30:48.818Z,1.50
2017-12-29T05:33:16.703Z,1.50
2017-12-29T05:35:44.264Z,1.50
2017-12-29T05:38:11.850Z,1.50
2017-12-29T05:40:39.440Z,1.50
2017-12-29T05:43:07.018Z,1.50
2017-12-29T05:45:35.686Z,1.50
2017-12-29T05:48:05.158Z,1.40
2017-12-29T05:50:33.502Z,1.50
2017-12-29T05:53:01.173Z,1.30
2017-12-29T05:55:29.517Z,1.30
2017-12-29T05:57:58.334Z,1.20
2017-12-29T06:00:25.910Z,1.30
2017-12-29T06:02:53.515Z,1.20
2017-12-29T06:05:21.107Z,1.30
2017-12-29T06:07:48.713Z,1.10
2017-12-29T06:10:16.293Z,1.20
2017-12-29T06:12:43.863Z,1.10
2017-12-29T06:15:11.461Z,1.10
2017-12-29T06:17:39.046Z,1.00
2017-12-29T06:20:06.666Z,0.90
2017-12-29T06:22:35.613Z,0.80
2017-12-29T06:25:04.206Z,0.70
2017-12-29T06:27:34.282Z,0.60
2017-12-29T06:30:01.916Z,0.60
2017-12-29T06:32:29.690Z,0.60
2017-12-29T06:34:57.261Z,0.60
2017-12-29T06:37:24.910Z,0.60
2017-12-29T06:39:53.254Z,0.60
2017-12-29T06:42:21.162Z,0.60
2017-12-29T06:44:48.740Z,0.50
2017-12-29T06:47:16.317Z,0.50
2017-12-29T06:49:43.926Z,0.60
2017-12-29T06:52:12.444Z,0.70
2017-12-29T06:54:40.814Z,0.90
2017-12-29T06:57:08.551Z,0.80
2017-12-29T06:59:36.165Z,0.90
2017-12-29T07:02:04.281Z,0.80
2017-12-29T07:04:31.852Z,0.80
2017-12-29T07:06:59.649Z,0.90
2017-12-29T07:09:27.244Z,1.00
2017-12-29T07:11:55.807Z,1.10
2017-12-29T07:14:23.389Z,1.10
2017-12-29T07:16:51.824Z,1.20
2017-12-29T07:19:20.680Z,1.20
2017-12-29T07:21:48.305Z,1.20
2017-12-29T07:24:15.914Z,1.30
2017-12-29T07:26:43.534Z,1.20
2017-12-29T07:29:11.147Z,1.20
2017-12-29T07:31:38.749Z,1.20
2017-12-29T07:34:06.344Z,1.20
2017-12-29T07:36:33.995Z,1.30
2017-12-29T07:39:02.342Z,1.30
2017-12-29T07:41:30.259Z,1.30
2017-12-29T07:43:57.851Z,1.30
2017-12-29T07:46:26.286Z,1.30
2017-12-29T07:48:53.877Z,1.30
2017-12-29T07:51:22.327Z,1.20
2017-12-29T07:53:49.942Z,1.20
2017-12-29T07:56:17.529Z,1.20
2017-12-29T07:58:45.146Z,1.10
2017-12-29T08:01:12.732Z,1.10
2017-12-29T08:03:40.309Z,1.20
2017-12-29T08:06:07.914Z,1.20
2017-12-29T08:08:35.510Z,1.30
2017-12-29T08:11:04.250Z,1.30
2017-12-29T08:13:31.831Z,1.30
2017-12-29T08:15:59.418Z,1.40
2017-12-29T08:18:27.018Z,1.30
2017-12-29T08:20:54.597Z,1.40
2017-12-29T08:23:22.986Z,1.40
2017-12-29T08:25:50.566Z,1.40
2017-12-29T08:28:18.178Z,1.50
2017-12-29T08:30:45.762Z,1.40
2017-12-29T08:33:13.337Z,1.50
2017-12-29T08:35:40.945Z,1.40
2017-12-29T08:38:08.525Z,1.40
2017-12-29T08:40:36.130Z,1.50
2017-12-29T08:43:04.609Z,1.50
2017-12-29T08:45:32.180Z,1.60
2017-12-29T08:47:59.805Z,1.60
2017-12-29T08:50:27.403Z,1.70
2017-12-29T08:52:55.011Z,1.80
2017-12-29T08:55:22.581Z,1.90
2017-12-29T08:57:50.958Z,2.00
2017-12-29T09:00:18.524Z,2.00
2017-12-29T09:02:46.101Z,2.00
2017-12-29T09:05:13.708Z,2.00
2017-12-29T09:07:42.063Z,2.10
2017-12-29T09:10:09.675Z,2.10
2017-12-29T09:12:37.291Z,2.10
2017-12-29T09:15:05.562Z,2.10
2017-12-29T09:17:34.137Z,2.20
2017-12-29T09:20:01.723Z,2.20
2017-12-29T09:22:29.325Z,2.20
2017-12-29T09:24:56.898Z,2.20
2017-12-29T09:27:25.332Z,2.30
2017-12-29T09:29:52.877Z,2.30
2017-12-29T09:32:20.445Z,2.40
2017-12-29T09:34:48.823Z,2.40
2017-12-29T09:37:16.455Z,2.40
2017-12-29T09:39:44.045Z,2.50
2017-12-29T09:42:11.694Z,2.50
2017-12-29T09:44:39.280Z,2.60
2017-12-29T09:47:07.626Z,2.60
2017-12-29T09:49:35.404Z,2.60
2017-12-29T09:52:03.910Z,2.70
2017-12-29T09:54:31.495Z,2.70
2017-12-29T09:56:59.163Z,2.70
2017-12-29T09:59:26.742Z,2.60
2017-12-29T10:01:55.117Z,2.70
2017-12-29T10:04:23.701Z,2.70
2017-12-29T10:06:52.744Z,2.70
2017-12-29T10:09:20.574Z,2.70
2017-12-29T10:11:48.159Z,2.70
2017-12-29T10:14:15.792Z,2.80
2017-12-29T10:16:43.459Z,2.70
2017-12-29T10:19:11.086Z,2.80
2017-12-29T10:21:38.702Z,2.80
2017-12-29T10:24:07.141Z,2.80
2017-12-29T10:26:36.152Z,2.80
2017-12-29T10:29:05.525Z,2.80
2017-12-29T10:31:33.931Z,2.80
2017-12-29T10:34:01.522Z,2.90
2017-12-29T10:36:29.138Z,2.90
2017-12-29T10:38:56.775Z,2.90
2017-12-29T10:41:24.349Z,2.90
2017-12-29T10:43:51.966Z,2.90
2017-12-29T10:46:19.550Z,2.90
2017-12-29T10:48:47.165Z,2.90
2017-12-29T10:51:15.014Z,3.00
2017-12-29T10:53:42.612Z,3.00
2017-12-29T10:56:10.192Z,3.00
2017-12-29T10:58:37.777Z,3.00
2017-12-29T11:01:05.414Z,3.00
2017-12-29T11:03:42.648Z,3.20
2017-12-29T11:06:10.253Z,3.10
2017-12-29T11:08:37.932Z,3.20
2017-12-29T11:11:05.544Z,3.20
2017-12-29T11:13:33.770Z,3.30
2017-12-29T11:16:01.354Z,3.50
2017-12-29T11:18:28.965Z,3.70
2017-12-29T11:20:57.301Z,4.10
2017-12-29T11:23:24.920Z,4.10
2017-12-29T11:25:52.500Z,3.80
2017-12-29T11:28:20.108Z,3.70
2017-12-29T11:30:47.692Z,3.70
2017-12-29T11:33:15.256Z,3.60
2017-12-29T11:35:42.884Z,3.60
2017-12-29T11:38:10.474Z,3.80
2017-12-29T11:40:38.847Z,3.90
2017-12-29T11:43:06.425Z,3.90
2017-12-29T11:45:34.038Z,4.00
2017-12-29T11:48:04.292Z,4.00
2017-12-29T11:50:31.878Z,4.10
2017-12-29T11:52:59.494Z,4.00
2017-12-29T11:55:27.079Z,4.00
2017-12-29T11:57:54.693Z,4.00
2017-12-29T12:00:23.056Z,4.10
2017-12-29T12:02:51.402Z,4.00
2017-12-29T12:05:19.010Z,4.00
2017-12-29T12:07:47.365Z,4.20
2017-12-29T12:10:14.993Z,4.20
2017-12-29T12:12:42.573Z,4.30
2017-12-29T12:15:10.182Z,4.30
2017-12-29T12:17:37.782Z,4.50
2017-12-29T12:20:05.363Z,4.60
2017-12-29T12:22:34.564Z,4.60
2017-12-29T12:25:02.140Z,4.60
2017-12-29T12:27:29.795Z,4.80
2017-12-29T12:29:57.388Z,4.60
2017-12-29T12:32:25.008Z,4.40
2017-12-29T12:34:52.590Z,4.40
2017-12-29T12:37:20.294Z,4.30
2017-12-29T12:39:47.966Z,4.20
2017-12-29T12:42:15.650Z,4.20
2017-12-29T12:44:43.368Z,4.20
2017-12-29T12:47:10.953Z,4.20
2017-12-29T12:49:38.748Z,4.20
2017-12-29T12:52:06.316Z,4.50
2017-12-29T12:54:33.957Z,4.60
2017-12-29T12:57:01.585Z,4.70
2017-12-29T12:59:29.160Z,4.50
2017-12-29T13:01:57.904Z,4.50
2017-12-29T13:04:25.529Z,4.60
2017-12-29T13:06:53.186Z,4.70
2017-12-29T13:09:20.769Z,4.50
2017-12-29T13:11:48.337Z,4.40
2017-12-29T13:14:15.957Z,4.40
2017-12-29T13:16:44.325Z,4.20
2017-12-29T13:19:11.924Z,4.20
2017-12-29T13:21:39.506Z,4.00
2017-12-29T13:24:07.125Z,3.90
2017-12-29T13:26:36.000Z,3.70
2017-12-29T13:29:04.278Z,3.80
2017-12-29T13:31:35.126Z,4.00
2017-12-29T13:34:03.553Z,3.90
2017-12-29T13:36:31.455Z,3.90
2017-12-29T13:38:59.027Z,3.80
2017-12-29T13:41:26.631Z,3.90
2017-12-29T13:43:54.210Z,3.80
2017-12-29T13:46:21.779Z,3.90
2017-12-29T13:48:50.150Z,3.80
2017-12-29T13:51:17.725Z,3.80
2017-12-29T13:53:45.335Z,3.80
2017-12-29T13:56:14.807Z,3.70
2017-12-29T13:58:42.417Z,3.70
2017-12-29T14:01:10.004Z,3.70
2017-12-29T14:03:37.572Z,3.70
2017-12-29T14:06:05.169Z,3.60
2017-12-29T14:08:33.865Z,3.70
2017-12-29T14:11:01.470Z,3.60
2017-12-29T14:13:29.053Z,3.60
2017-12-29T14:15:56.661Z,3.60
2017-12-29T14:18:24.242Z,3.50
2017-12-29T14:20:51.823Z,3.50
2017-12-29T14:23:19.435Z,3.40
2017-12-29T14:25:47.020Z,3.30
2017-12-29T14:28:14.634Z,3.20
2017-12-29T14:30:42.214Z,3.10
2017-12-29T14:33:09.825Z,3.00
2017-12-29T14:35:38.169Z,2.80
2017-12-29T14:38:05.782Z,2.80
2017-12-29T14:40:35.762Z,2.70
2017-12-29T14:43:04.602Z,2.60
2017-12-29T14:45:32.216Z,2.60
2017-12-29T14:48:00.709Z,2.40
2017-12-29T14:50:28.386Z,2.40
2017-12-29T14:52:55.966Z,2.30
2017-12-29T14:55:23.595Z,2.20
2017-12-29T14:57:51.174Z,1.90
2017-12-29T15:00:18.746Z,1.90
2017-12-29T15:02:46.350Z,1.90
2017-12-29T15:05:13.934Z,1.80
2017-12-29T15:07:41.547Z,1.80
2017-12-29T15:10:09.130Z,1.70
2017-12-29T15:12:36.744Z,1.70
2017-12-29T15:15:05.098Z,1.70
2017-12-29T15:17:34.461Z,1.70
2017-12-29T15:20:02.066Z,1.70
2017-12-29T15:22:29.647Z,1.50
2017-12-29T15:24:57.263Z,1.50
2017-12-29T15:27:25.617Z,1.40
2017-12-29T15:29:53.257Z,1.40
2017-12-29T15:32:21.601Z,1.30
2017-12-29T15:34:49.196Z,1.30
2017-12-29T15:37:16.805Z,1.30
2017-12-29T15:39:48.580Z,1.20
2017-12-29T15:42:16.965Z,1.20
2017-12-29T15:44:44.541Z,1.10
2017-12-29T15:47:12.141Z,1.10
2017-12-29T15:49:39.726Z,1.10
2017-12-29T15:52:07.325Z,1.00
2017-12-29T15:54:35.660Z,0.90
2017-12-29T15:57:04.319Z,0.90
2017-12-29T15:59:31.905Z,0.80
2017-12-29T16:02:00.419Z,0.80
2017-12-29T16:04:32.495Z,0.80
2017-12-29T16:07:00.103Z,0.80
2017-12-29T16:09:27.680Z,0.70
2017-12-29T16:11:55.290Z,0.70
2017-12-29T16:14:22.867Z,0.70
2017-12-29T16:16:50.462Z,0.70
2017-12-29T16:19:18.073Z,0.70
2017-12-29T16:21:45.640Z,0.70
2017-12-29T16:24:13.249Z,0.60
2017-12-29T16:26:40.834Z,0.70
2017-12-29T16:29:08.432Z,0.60
2017-12-29T16:31:36.028Z,0.40
2017-12-29T16:34:04.826Z,0.30
2017-12-29T16:36:32.416Z,0.20
2017-12-29T16:39:00.004Z,0.10
2017-12-29T16:41:27.617Z,0.10
2017-12-29T16:43:55.194Z,0.10
2017-12-29T16:46:22.810Z,0.10
2017-12-29T16:48:50.398Z,0.10
2017-12-29T16:51:18.796Z,0.00
2017-12-29T16:53:46.372Z,-0.10
2017-12-29T16:56:14.726Z,0.00
2017-12-29T16:58:42.353Z,0.00
2017-12-29T17:01:09.934Z,-0.10
2017-12-29T17:03:37.554Z,-0.10
2017-12-29T17:06:05.902Z,-0.20
2017-12-29T17:08:34.772Z,-0.30
2017-12-29T17:11:04.203Z,-0.30
2017-12-29T17:13:32.554Z,-0.20
2017-12-29T17:16:00.926Z,-0.20
2017-12-29T17:18:29.266Z,-0.30
2017-12-29T17:20:56.886Z,-0.30
2017-12-29T17:23:24.456Z,-0.30
2017-12-29T17:25:52.038Z,-0.40
2017-12-29T17:28:19.646Z,-0.50
2017-12-29T17:30:47.228Z,-0.50
2017-12-29T17:33:14.834Z,-0.60
2017-12-29T17:35:42.430Z,-0.60
2017-12-29T17:38:10.796Z,-0.60
2017-12-29T17:40:38.378Z,-0.60
2017-12-29T17:43:05.958Z,-0.60
2017-12-29T17:45:35.597Z,-0.70
2017-12-29T17:48:04.196Z,-0.70
2017-12-29T17:50:31.805Z,-0.70
2017-12-29T17:52:59.391Z,-0.70
2017-12-29T17:55:27.011Z,-0.70
2017-12-29T17:57:54.601Z,-0.70
2017-12-29T18:00:22.185Z,-0.70
2017-12-29T18:02:51.413Z,-0.60
2017-12-29T18:05:18.988Z,-0.60
2017-12-29T18:07:46.646Z,-0.60
2017-12-29T18:10:14.234Z,-0.60
2017-12-29T18:12:41.851Z,-0.60
2017-12-29T18:15:09.434Z,-0.60
2017-12-29T18:17:37.022Z,-0.60
2017-12-29T18:20:05.938Z,-0.70
2017-12-29T18:22:34.950Z,-0.70
2017-12-29T18:25:02.556Z,-0.80
2017-12-29T18:27:30.138Z,-0.80
2017-12-29T18:29:57.712Z,-0.90
2017-12-29T18:32:25.335Z,-0.90
2017-12-29T18:34:52.927Z,-1.00
2017-12-29T18:37:20.542Z,-1.00
2017-12-29T18:39:48.124Z,-1.00
2017-12-29T18:42:16.478Z,-1.00
2017-12-29T18:44:44.094Z,-1.00
2017-12-29T18:47:11.710Z,-1.00
2017-12-29T18:49:40.405Z,-1.00
2017-12-29T18:52:08.059Z,-1.10
2017-12-29T18:54:35.684Z,-1.10
2017-12-29T18:57:04.043Z,-1.10
2017-12-29T18:59:31.626Z,-1.20
2017-12-29T19:01:59.265Z,-1.10
2017-12-29T19:04:26.862Z,-1.20
2017-12-29T19:07:00.310Z,-1.20
2017-12-29T19:09:27.893Z,-1.20
2017-12-29T19:11:55.521Z,-1.20
2017-12-29T19:14:23.106Z,-1.30
2017-12-29T19:16:50.684Z,-1.30
2017-12-29T19:19:18.307Z,-1.40
2017-12-29T19:21:45.900Z,-1.30
2017-12-29T19:24:14.274Z,-1.30
2017-12-29T19:26:42.125Z,-1.30
2017-12-29T19:29:09.756Z,-1.30
2017-12-29T19:31:37.347Z,-1.30
2017-12-29T19:34:05.862Z,-1.30
2017-12-29T19:36:34.812Z,-1.40
2017-12-29T19:39:02.397Z,-1.40
2017-12-29T19:41:30.766Z,-1.30
2017-12-29T19:43:58.349Z,-1.40
2017-12-29T19:46:25.969Z,-1.30
2017-12-29T19:48:54.308Z,-1.30
2017-12-29T19:51:21.896Z,-1.30
2017-12-29T19:53:49.507Z,-1.30
2017-12-29T19:56:17.095Z,-1.30
2017-12-29T19:58:44.707Z,-1.40
2017-12-29T20:01:13.055Z,-1.40
2017-12-29T20:03:40.684Z,-1.40
2017-12-29T20:06:08.270Z,-1.30
2017-12-29T20:08:35.884Z,-1.40
2017-12-29T20:11:04.596Z,-1.40
2017-12-29T20:13:32.959Z,-1.40
2017-12-29T20:16:00.561Z,-1.40
2017-12-29T20:18:28.136Z,-1.40
2017-12-29T20:20:55.737Z,-1.40
2017-12-29T20:23:23.314Z,-1.40
2017-12-29T20:25:50.907Z,-1.40
2017-12-29T20:28:18.532Z,-1.50
2017-12-29T20:30:46.949Z,-1.50
2017-12-29T20:33:15.338Z,-1.50
2017-12-29T20:35:43.174Z,-1.50
2017-12-29T20:38:10.803Z,-1.60
2017-12-29T20:40:38.384Z,-1.60
2017-12-29T20:43:05.981Z,-1.60
2017-12-29T20:45:35.184Z,-1.60
2017-12-29T20:48:03.467Z,-1.60
2017-12-29T20:50:31.838Z,-1.60
2017-12-29T20:52:59.431Z,-1.60
2017-12-29T20:55:27.061Z,-1.60
2017-12-29T20:57:54.651Z,-1.50
2017-12-29T21:00:22.243Z,-1.50
2017-12-29T21:02:49.846Z,-1.40
2017-12-29T21:05:17.455Z,-1.40
2017-12-29T21:07:45.195Z,-1.20
2017-12-29T21:10:12.780Z,-1.20
2017-12-29T21:12:40.418Z,-1.20
2017-12-29T21:15:08.029Z,-1.10
2017-12-29T21:17:35.608Z,-1.10
2017-12-29T21:20:04.169Z,-1.10
2017-12-29T21:22:31.750Z,-1.10
2017-12-29T21:24:59.364Z,-1.10
2017-12-29T21:27:26.962Z,-1.20
2017-12-29T21:29:54.531Z,-1.20
2017-12-29T21:32:22.215Z,-1.20
2017-12-29T21:34:49.787Z,-1.30
2017-12-29T21:37:17.401Z,-1.30
2017-12-29T21:39:44.981Z,-1.30
2017-12-29T21:42:12.606Z,-1.30
2017-12-29T21:44:40.226Z,-1.30
2017-12-29T21:47:07.844Z,-1.30
2017-12-29T21:49:35.506Z,-1.30
2017-12-29T21:52:03.417Z,-1.40
2017-12-29T21:54:31.042Z,-1.40
2017-12-29T21:56:58.736Z,-1.50
2017-12-29T21:59:26.372Z,-1.50
2017-12-29T22:01:53.957Z,-1.60
2017-12-29T22:04:22.303Z,-1.70
2017-12-29T22:06:49.909Z,-1.70
2017-12-29T22:09:18.262Z,-1.70
2017-12-29T22:11:45.862Z,-1.70
2017-12-29T22:14:14.226Z,-1.70
2017-12-29T22:16:41.896Z,-1.80
2017-12-29T22:19:09.491Z,-1.80
2017-12-29T22:21:37.082Z,-1.80
2017-12-29T22:24:05.513Z,-1.80
2017-12-29T22:26:33.466Z,-1.80
2017-12-29T22:29:01.848Z,-1.80
2017-12-29T22:31:29.435Z,-1.80
2017-12-29T22:33:57.051Z,-1.80
2017-12-29T22:36:25.406Z,-1.80
2017-12-29T22:38:53.024Z,-1.80
2017-12-29T22:41:20.652Z,-1.80
2017-12-29T22:43:48.241Z,-1.80
2017-12-29T22:46:15.847Z,-1.80
2017-12-29T22:48:43.441Z,-1.80
2017-12-29T22:51:11.053Z,-1.80
2017-12-29T22:53:38.638Z,-1.80
2017-12-29T22:56:06.209Z,-1.90
2017-12-29T22:58:34.363Z,-1.90
2017-12-29T23:01:01.951Z,-2.00
2017-12-29T23:03:29.570Z,-2.00
2017-12-29T23:05:57.163Z,-2.00
2017-12-29T23:08:25.597Z,-2.00
2017-12-29T23:10:53.188Z,-2.00
2017-12-29T23:13:20.783Z,-2.00
2017-12-29T23:15:48.398Z,-2.00
2017-12-29T23:18:16.007Z,-2.00
2017-12-29T23:20:43.619Z,-2.00
2017-12-29T23:23:11.970Z,-2.00
2017-12-29T23:25:39.588Z,-2.00
2017-12-29T23:28:07.933Z,-2.10
2017-12-29T23:30:35.524Z,-2.10
2017-12-29T23:33:03.914Z,-2.10
2017-12-29T23:35:31.495Z,-2.10
2017-12-29T23:37:59.111Z,-2.10
2017-12-29T23:40:26.702Z,-2.10
2017-12-29T23:42:55.098Z,-2.10
2017-12-29T23:45:23.449Z,-2.10
2017-12-29T23:47:51.063Z,-2.10
2017-12-29T23:50:18.651Z,-2.00
2017-12-29T23:52:46.248Z,-2.10
2017-12-29T23:55:13.867Z,-2.10
2017-12-29T23:57:42.230Z,-2.10
